ETOU/WIE METAR and TAF weather

Enter ICAO airport designator
Station Type Date Time Source
ETOU METAR 2020/01/21 14:56 UTC NOAA

ETOU 211456Z AUTO 13004KT 9999 CLR 05/M02 A3071 RMK AO2 SLP410 T00481016 56014 $


Station Type Date Time Source
ETOU Decoded METAR 2020/01/21 14:56 UTC NOAA

Wiesbaden, Germany (ETOU) 50-03N 008-20E
Jan 21, 2020 - 09:56 AM EST / 2020.01.21 1456 UTC
Wind: from the SE (130 degrees) at 5 MPH (4 KT):0
Visibility: greater than 7 mile(s):0
Sky conditions: clear
Temperature: 40.6 F (4.8 C)
Dew Point: 29.1 F (-1.6 C)
Relative Humidity: 63%
Pressure (altimeter): 30.71 in. Hg (1039 hPa)
Pressure tendency: 0.04 inches (1.4 hPa) lower than three hours ago
ob: ETOU 211456Z AUTO 13004KT 9999 CLR 05/M02 A3071 RMK AO2 SLP410 T00481016 56014
cycle: 15

Station Type Date Time Source
ETOU TAF 2020/01/21 14:21 UTC NOAA

TAF TAF
AMD ETOU 211415Z 2114/2218 10005KT 9999 SKC QNH3071INS
BECMG 2201/2202 VRB06KT 8000 BR SCT010 QNH3065INS
BECMG 2203/2204 VRB06KT 0800 FG SCT010 QNH3063INS
BECMG 2211/2212 VRB06KT 3000 BR BKN005 QNH3055INS
TEMPO 2215/2218 6000 -FZDZ BR 660002 620202 TX05/2114Z TNM05/2206Z

Example: see airport list